sensor_id;sensor_type;location;lat;lon;timestamp;pressure;altitude;pressure_sealevel;temperature;humidity
59391;BME280;53405;57.012;40.984;2023-05-02T00:00:02;100373.75;;;6.39;79.16
59391;BME280;53405;57.012;40.984;2023-05-02T00:02:32;100382.56;;;6.38;78.61
59391;BME280;53405;57.012;40.984;2023-05-02T00:05:00;100379.91;;;6.48;78.28
59391;BME280;53405;57.012;40.984;2023-05-02T00:07:29;100384.16;;;6.59;77.47
59391;BME280;53405;57.012;40.984;2023-05-02T00:09:57;100388.47;;;6.50;77.81
59391;BME280;53405;57.012;40.984;2023-05-02T00:12:25;100395.63;;;6.48;78.56
59391;BME280;53405;57.012;40.984;2023-05-02T00:14:53;100402.91;;;6.54;77.97
59391;BME280;53405;57.012;40.984;2023-05-02T00:17:21;100404.06;;;6.42;78.96
59391;BME280;53405;57.012;40.984;2023-05-02T00:19:48;100401.88;;;6.37;78.20
59391;BME280;53405;57.012;40.984;2023-05-02T00:22:16;100407.84;;;6.57;78.31
59391;BME280;53405;57.012;40.984;2023-05-02T00:24:43;100407.59;;;6.50;77.20
59391;BME280;53405;57.012;40.984;2023-05-02T00:27:11;100414.41;;;6.24;79.56
59391;BME280;53405;57.012;40.984;2023-05-02T00:29:40;100419.22;;;6.28;79.26
59391;BME280;53405;57.012;40.984;2023-05-02T00:32:08;100426.38;;;6.26;79.57
59391;BME280;53405;57.012;40.984;2023-05-02T00:34:36;100414.38;;;6.33;79.47
59391;BME280;53405;57.012;40.984;2023-05-02T00:37:03;100408.63;;;6.10;79.74
59391;BME280;53405;57.012;40.984;2023-05-02T00:39:31;100419.78;;;6.12;79.94
59391;BME280;53405;57.012;40.984;2023-05-02T00:42:00;100424.03;;;6.23;79.50
59391;BME280;53405;57.012;40.984;2023-05-02T00:44:29;100421.72;;;6.10;79.55
59391;BME280;53405;57.012;40.984;2023-05-02T00:46:57;100428.41;;;5.84;81.28
59391;BME280;53405;57.012;40.984;2023-05-02T00:49:25;100429.09;;;5.86;81.24
59391;BME280;53405;57.012;40.984;2023-05-02T00:51:53;100433.78;;;5.82;81.94
59391;BME280;53405;57.012;40.984;2023-05-02T00:54:20;100432.66;;;5.85;80.46
59391;BME280;53405;57.012;40.984;2023-05-02T00:56:48;100440.63;;;5.83;81.08
59391;BME280;53405;57.012;40.984;2023-05-02T00:59:16;100430.03;;;5.85;80.56
59391;BME280;53405;57.012;40.984;2023-05-02T01:15:19;100471.16;;;5.63;81.25
59391;BME280;53405;57.012;40.984;2023-05-02T01:17:49;100471.97;;;5.54;81.68
59391;BME280;53405;57.012;40.984;2023-05-02T01:20:24;100462.84;;;5.38;81.10
59391;BME280;53405;57.012;40.984;2023-05-02T01:22:57;100479.72;;;5.34;82.57
59391;BME280;53405;57.012;40.984;2023-05-02T01:25:57;100489.97;;;5.47;81.58
59391;BME280;53405;57.012;40.984;2023-05-02T01:31:12;100499.50;;;5.27;82.19
59391;BME280;53405;57.012;40.984;2023-05-02T01:33:43;100503.75;;;5.28;83.04
59391;BME280;53405;57.012;40.984;2023-05-02T01:36:13;100501.75;;;5.11;82.74
59391;BME280;53405;57.012;40.984;2023-05-02T01:38:43;100508.94;;;5.18;82.45
59391;BME280;53405;57.012;40.984;2023-05-02T01:41:11;100507.56;;;5.14;83.16
59391;BME280;53405;57.012;40.984;2023-05-02T01:43:40;100518.94;;;5.13;83.14
59391;BME280;53405;57.012;40.984;2023-05-02T01:46:10;100517.75;;;5.17;82.73
59391;BME280;53405;57.012;40.984;2023-05-02T01:48:43;100521.03;;;5.19;82.38
59391;BME280;53405;57.012;40.984;2023-05-02T01:51:14;100483.38;;;4.91;82.14
59391;BME280;53405;57.012;40.984;2023-05-02T01:53:44;100520.16;;;5.09;82.72
59391;BME280;53405;57.012;40.984;2023-05-02T01:56:14;100520.41;;;5.06;82.92
59391;BME280;53405;57.012;40.984;2023-05-02T01:58:44;100524.69;;;5.07;82.94
59391;BME280;53405;57.012;40.984;2023-05-02T02:01:14;100528.31;;;4.95;82.75
59391;BME280;53405;57.012;40.984;2023-05-02T02:03:43;100539.78;;;5.03;82.37
59391;BME280;53405;57.012;40.984;2023-05-02T02:06:12;100540.22;;;4.87;82.99
59391;BME280;53405;57.012;40.984;2023-05-02T02:08:40;100548.75;;;4.89;83.51
59391;BME280;53405;57.012;40.984;2023-05-02T02:11:11;100540.81;;;4.91;82.84
59391;BME280;53405;57.012;40.984;2023-05-02T02:13:45;100548.63;;;4.91;82.34
59391;BME280;53405;57.012;40.984;2023-05-02T02:16:21;100549.13;;;4.85;82.82
59391;BME280;53405;57.012;40.984;2023-05-02T02:18:53;100531.56;;;4.66;83.20
59391;BME280;53405;57.012;40.984;2023-05-02T02:21:24;100569.06;;;4.86;82.86
59391;BME280;53405;57.012;40.984;2023-05-02T02:23:56;100580.00;;;5.01;82.70
59391;BME280;53405;57.012;40.984;2023-05-02T02:26:29;100575.22;;;5.06;82.56
59391;BME280;53405;57.012;40.984;2023-05-02T02:28:59;100587.25;;;5.18;81.30
59391;BME280;53405;57.012;40.984;2023-05-02T02:31:34;100601.59;;;5.03;82.39
59391;BME280;53405;57.012;40.984;2023-05-02T02:34:02;100601.06;;;5.09;81.74
59391;BME280;53405;57.012;40.984;2023-05-02T02:36:35;100608.34;;;5.05;81.62
59391;BME280;53405;57.012;40.984;2023-05-02T02:42:15;100607.66;;;5.03;81.42
59391;BME280;53405;57.012;40.984;2023-05-02T02:44:57;100604.97;;;4.94;81.54
59391;BME280;53405;57.012;40.984;2023-05-02T02:47:31;100608.59;;;5.02;80.91
59391;BME280;53405;57.012;40.984;2023-05-02T02:50:24;100609.88;;;5.08;80.95
59391;BME280;53405;57.012;40.984;2023-05-02T02:53:03;100619.81;;;5.14;81.13
59391;BME280;53405;57.012;40.984;2023-05-02T02:55:54;100633.44;;;5.18;80.26
59391;BME280;53405;57.012;40.984;2023-05-02T02:58:35;100633.06;;;5.01;81.23
59391;BME280;53405;57.012;40.984;2023-05-02T03:01:10;100636.25;;;5.05;81.30
59391;BME280;53405;57.012;40.984;2023-05-02T03:03:42;100634.31;;;5.07;81.25
59391;BME280;53405;57.012;40.984;2023-05-02T03:06:10;100650.00;;;5.07;80.46
59391;BME280;53405;57.012;40.984;2023-05-02T03:08:40;100650.06;;;5.17;80.97
59391;BME280;53405;57.012;40.984;2023-05-02T03:11:11;100602.50;;;4.92;80.81
59391;BME280;53405;57.012;40.984;2023-05-02T03:13:39;100650.47;;;5.33;80.47
59391;BME280;53405;57.012;40.984;2023-05-02T03:16:33;100660.97;;;5.43;79.68
59391;BME280;53405;57.012;40.984;2023-05-02T03:19:04;100665.75;;;5.38;79.11
59391;BME280;53405;57.012;40.984;2023-05-02T03:21:33;100665.81;;;5.48;78.87
59391;BME280;53405;57.012;40.984;2023-05-02T03:24:09;100681.47;;;5.48;79.30
59391;BME280;53405;57.012;40.984;2023-05-02T03:26:36;100665.47;;;5.62;78.18
59391;BME280;53405;57.012;40.984;2023-05-02T03:29:07;100683.75;;;5.62;78.05
59391;BME280;53405;57.012;40.984;2023-05-02T03:31:39;100671.31;;;5.75;76.74
59391;BME280;53405;57.012;40.984;2023-05-02T03:34:06;100685.78;;;5.79;78.00
59391;BME280;53405;57.012;40.984;2023-05-02T03:36:36;100681.69;;;5.87;76.35
59391;BME280;53405;57.012;40.984;2023-05-02T03:39:04;100690.78;;;5.92;75.99
59391;BME280;53405;57.012;40.984;2023-05-02T03:41:32;100695.06;;;5.93;75.95
59391;BME280;53405;57.012;40.984;2023-05-02T03:44:05;100698.56;;;6.04;75.62
59391;BME280;53405;57.012;40.984;2023-05-02T03:46:34;100696.59;;;6.17;75.86
59391;BME280;53405;57.012;40.984;2023-05-02T03:49:05;100675.81;;;6.25;74.85
59391;BME280;53405;57.012;40.984;2023-05-02T03:51:34;100692.25;;;6.37;74.05
59391;BME280;53405;57.012;40.984;2023-05-02T03:54:04;100707.69;;;6.50;73.24
59391;BME280;53405;57.012;40.984;2023-05-02T03:56:32;100719.53;;;6.54;73.69
59391;BME280;53405;57.012;40.984;2023-05-02T03:59:17;100713.34;;;6.55;72.53
59391;BME280;53405;57.012;40.984;2023-05-02T04:01:48;100697.38;;;6.48;72.02
59391;BME280;53405;57.012;40.984;2023-05-02T04:04:18;100723.28;;;6.51;72.36
59391;BME280;53405;57.012;40.984;2023-05-02T04:06:49;100722.47;;;6.61;71.31
59391;BME280;53405;57.012;40.984;2023-05-02T04:09:17;100723.44;;;6.69;70.83
59391;BME280;53405;57.012;40.984;2023-05-02T04:11:54;100733.25;;;6.77;70.25
59391;BME280;53405;57.012;40.984;2023-05-02T04:14:22;100722.38;;;6.82;70.30
59391;BME280;53405;57.012;40.984;2023-05-02T04:16:52;100724.84;;;6.93;69.46
59391;BME280;53405;57.012;40.984;2023-05-02T04:19:29;100726.53;;;6.94;68.63
59391;BME280;53405;57.012;40.984;2023-05-02T04:21:57;100727.63;;;7.01;69.89
59391;BME280;53405;57.012;40.984;2023-05-02T04:24:25;100730.38;;;7.00;67.87
59391;BME280;53405;57.012;40.984;2023-05-02T04:26:54;100737.81;;;7.04;69.17
59391;BME280;53405;57.012;40.984;2023-05-02T04:29:22;100748.59;;;7.11;70.95
59391;BME280;53405;57.012;40.984;2023-05-02T04:31:50;100753.97;;;7.19;69.19
59391;BME280;53405;57.012;40.984;2023-05-02T04:34:18;100742.66;;;7.19;67.84
59391;BME280;53405;57.012;40.984;2023-05-02T04:36:46;100752.84;;;7.22;68.95
59391;BME280;53405;57.012;40.984;2023-05-02T04:39:21;100747.63;;;7.32;68.32
59391;BME280;53405;57.012;40.984;2023-05-02T04:42:09;100756.03;;;7.35;68.33
59391;BME280;53405;57.012;40.984;2023-05-02T04:44:45;100725.84;;;7.21;68.54
59391;BME280;53405;57.012;40.984;2023-05-02T04:47:13;100765.84;;;7.43;67.18
59391;BME280;53405;57.012;40.984;2023-05-02T04:49:41;100758.25;;;7.50;67.69
59391;BME280;53405;57.012;40.984;2023-05-02T04:52:09;100760.97;;;7.58;68.55
59391;BME280;53405;57.012;40.984;2023-05-02T04:54:38;100757.22;;;7.80;67.07
59391;BME280;53405;57.012;40.984;2023-05-02T04:57:05;100732.41;;;7.74;64.22
59391;BME280;53405;57.012;40.984;2023-05-02T04:59:37;100768.53;;;7.90;65.29
59391;BME280;53405;57.012;40.984;2023-05-02T05:02:06;100765.22;;;7.98;62.74
59391;BME280;53405;57.012;40.984;2023-05-02T05:04:35;100767.53;;;8.11;61.65
59391;BME280;53405;57.012;40.984;2023-05-02T05:07:04;100767.66;;;8.09;63.12
59391;BME280;53405;57.012;40.984;2023-05-02T05:09:31;100782.56;;;8.19;62.66
59391;BME280;53405;57.012;40.984;2023-05-02T05:11:59;100781.56;;;8.29;61.86
59391;BME280;53405;57.012;40.984;2023-05-02T05:14:30;100779.19;;;8.36;57.84
59391;BME280;53405;57.012;40.984;2023-05-02T05:16:58;100781.28;;;8.32;56.73
59391;BME280;53405;57.012;40.984;2023-05-02T05:19:26;100760.69;;;8.28;57.66
59391;BME280;53405;57.012;40.984;2023-05-02T05:21:56;100782.47;;;8.48;55.11
59391;BME280;53405;57.012;40.984;2023-05-02T05:24:24;100785.06;;;8.58;53.99
59391;BME280;53405;57.012;40.984;2023-05-02T05:26:53;100781.09;;;8.72;52.25
59391;BME280;53405;57.012;40.984;2023-05-02T05:29:21;100786.63;;;8.78;52.97
59391;BME280;53405;57.012;40.984;2023-05-02T05:31:49;100785.34;;;8.82;52.41
59391;BME280;53405;57.012;40.984;2023-05-02T05:34:19;100789.63;;;8.83;50.57
59391;BME280;53405;57.012;40.984;2023-05-02T05:36:50;100785.38;;;9.00;50.38
59391;BME280;53405;57.012;40.984;2023-05-02T05:39:19;100794.06;;;9.01;50.71
59391;BME280;53405;57.012;40.984;2023-05-02T05:41:49;100801.00;;;9.02;49.21
59391;BME280;53405;57.012;40.984;2023-05-02T05:44:17;100803.84;;;9.09;48.85
59391;BME280;53405;57.012;40.984;2023-05-02T05:46:48;100799.94;;;9.13;49.45
59391;BME280;53405;57.012;40.984;2023-05-02T05:49:18;100805.56;;;9.00;49.37
59391;BME280;53405;57.012;40.984;2023-05-02T05:51:46;100801.97;;;9.01;49.60
59391;BME280;53405;57.012;40.984;2023-05-02T05:54:16;100792.41;;;9.00;54.01
59391;BME280;53405;57.012;40.984;2023-05-02T05:56:44;100802.22;;;9.26;50.81
59391;BME280;53405;57.012;40.984;2023-05-02T05:59:15;100807.91;;;9.39;49.78
59391;BME280;53405;57.012;40.984;2023-05-02T06:01:43;100821.66;;;9.33;51.45
59391;BME280;53405;57.012;40.984;2023-05-02T06:04:12;100806.72;;;9.33;48.25
59391;BME280;53405;57.012;40.984;2023-05-02T06:06:44;100818.22;;;9.32;49.39
59391;BME280;53405;57.012;40.984;2023-05-02T06:09:12;100818.00;;;9.44;49.24
59391;BME280;53405;57.012;40.984;2023-05-02T06:11:41;100812.72;;;9.44;45.00
59391;BME280;53405;57.012;40.984;2023-05-02T06:14:09;100813.41;;;9.46;48.40
59391;BME280;53405;57.012;40.984;2023-05-02T06:16:37;100822.13;;;9.46;46.34
59391;BME280;53405;57.012;40.984;2023-05-02T06:19:05;100819.41;;;9.56;46.65
59391;BME280;53405;57.012;40.984;2023-05-02T06:21:35;100809.03;;;9.72;46.26
59391;BME280;53405;57.012;40.984;2023-05-02T06:24:04;100815.19;;;9.81;46.58
59391;BME280;53405;57.012;40.984;2023-05-02T06:26:32;100813.22;;;9.83;44.65
59391;BME280;53405;57.012;40.984;2023-05-02T06:28:59;100807.91;;;9.75;43.82
59391;BME280;53405;57.012;40.984;2023-05-02T06:31:28;100820.28;;;9.83;43.54
59391;BME280;53405;57.012;40.984;2023-05-02T06:33:56;100817.00;;;9.81;42.64
59391;BME280;53405;57.012;40.984;2023-05-02T06:36:24;100830.38;;;9.87;45.11
59391;BME280;53405;57.012;40.984;2023-05-02T06:38:55;100831.78;;;10.00;44.98
59391;BME280;53405;57.012;40.984;2023-05-02T06:41:23;100829.59;;;9.95;39.46
59391;BME280;53405;57.012;40.984;2023-05-02T06:43:50;100821.16;;;9.91;40.28
59391;BME280;53405;57.012;40.984;2023-05-02T06:46:18;100828.84;;;10.03;42.19
59391;BME280;53405;57.012;40.984;2023-05-02T06:48:47;100825.09;;;10.13;42.29
59391;BME280;53405;57.012;40.984;2023-05-02T06:51:15;100820.13;;;10.28;42.48
59391;BME280;53405;57.012;40.984;2023-05-02T06:53:43;100830.28;;;10.23;41.26
59391;BME280;53405;57.012;40.984;2023-05-02T06:56:10;100827.69;;;10.31;42.32
59391;BME280;53405;57.012;40.984;2023-05-02T06:58:38;100818.13;;;10.30;38.99
59391;BME280;53405;57.012;40.984;2023-05-02T07:01:05;100824.31;;;10.39;39.72
59391;BME280;53405;57.012;40.984;2023-05-02T07:03:33;100833.22;;;10.46;38.59
59391;BME280;53405;57.012;40.984;2023-05-02T07:06:01;100826.09;;;10.39;37.88
59391;BME280;53405;57.012;40.984;2023-05-02T07:08:28;100810.94;;;10.33;40.03
59391;BME280;53405;57.012;40.984;2023-05-02T07:10:56;100835.75;;;10.56;41.46
59391;BME280;53405;57.012;40.984;2023-05-02T07:13:25;100834.34;;;10.70;41.29
59391;BME280;53405;57.012;40.984;2023-05-02T07:15:52;100827.13;;;10.80;40.05
59391;BME280;53405;57.012;40.984;2023-05-02T07:18:20;100809.97;;;10.68;41.17
59391;BME280;53405;57.012;40.984;2023-05-02T07:20:48;100836.25;;;10.94;42.10
59391;BME280;53405;57.012;40.984;2023-05-02T07:23:16;100836.09;;;10.96;39.50
59391;BME280;53405;57.012;40.984;2023-05-02T07:25:44;100820.56;;;10.84;36.92
59391;BME280;53405;57.012;40.984;2023-05-02T07:28:12;100814.00;;;10.89;41.12
59391;BME280;53405;57.012;40.984;2023-05-02T07:30:39;100830.84;;;11.12;39.42
59391;BME280;53405;57.012;40.984;2023-05-02T07:33:07;100836.44;;;11.01;37.37
59391;BME280;53405;57.012;40.984;2023-05-02T07:35:35;100830.28;;;10.84;37.36
59391;BME280;53405;57.012;40.984;2023-05-02T07:38:02;100834.56;;;10.85;38.02
59391;BME280;53405;57.012;40.984;2023-05-02T07:40:30;100805.50;;;10.69;38.52
59391;BME280;53405;57.012;40.984;2023-05-02T07:42:59;100837.88;;;10.95;38.91
59391;BME280;53405;57.012;40.984;2023-05-02T07:45:27;100835.34;;;11.20;39.71
59391;BME280;53405;57.012;40.984;2023-05-02T07:47:55;100846.59;;;11.38;39.80
59391;BME280;53405;57.012;40.984;2023-05-02T07:50:23;100795.94;;;11.18;35.72
59391;BME280;53405;57.012;40.984;2023-05-02T07:52:50;100835.72;;;11.50;37.01
59391;BME280;53405;57.012;40.984;2023-05-02T07:55:18;100839.03;;;11.68;39.12
59391;BME280;53405;57.012;40.984;2023-05-02T07:57:46;100848.75;;;11.84;40.13
59391;BME280;53405;57.012;40.984;2023-05-02T08:00:16;100840.03;;;12.08;41.48
59391;BME280;53405;57.012;40.984;2023-05-02T08:02:44;100848.06;;;12.40;38.84
59391;BME280;53405;57.012;40.984;2023-05-02T08:05:12;100856.66;;;12.34;35.71
59391;BME280;53405;57.012;40.984;2023-05-02T08:07:40;100847.56;;;12.36;38.14
59391;BME280;53405;57.012;40.984;2023-05-02T08:10:08;100844.16;;;12.11;35.98
59391;BME280;53405;57.012;40.984;2023-05-02T08:12:40;100842.59;;;12.41;34.13
59391;BME280;53405;57.012;40.984;2023-05-02T08:15:10;100840.41;;;12.53;35.96
59391;BME280;53405;57.012;40.984;2023-05-02T08:17:40;100831.53;;;12.86;34.93
59391;BME280;53405;57.012;40.984;2023-05-02T08:20:08;100823.16;;;12.82;33.51
59391;BME280;53405;57.012;40.984;2023-05-02T08:22:35;100842.38;;;13.30;34.67
59391;BME280;53405;57.012;40.984;2023-05-02T08:25:03;100821.50;;;13.44;33.28
59391;BME280;53405;57.012;40.984;2023-05-02T08:27:31;100845.66;;;13.64;35.78
59391;BME280;53405;57.012;40.984;2023-05-02T08:30:02;100842.34;;;13.85;30.88
59391;BME280;53405;57.012;40.984;2023-05-02T08:32:32;100843.31;;;14.22;32.49
59391;BME280;53405;57.012;40.984;2023-05-02T08:34:59;100810.78;;;14.58;32.59
59391;BME280;53405;57.012;40.984;2023-05-02T08:37:31;100845.69;;;14.91;33.56
59391;BME280;53405;57.012;40.984;2023-05-02T08:39:59;100812.22;;;15.27;30.49
59391;BME280;53405;57.012;40.984;2023-05-02T08:42:32;100841.69;;;15.75;31.71
59391;BME280;53405;57.012;40.984;2023-05-02T08:45:01;100822.41;;;15.88;30.22
59391;BME280;53405;57.012;40.984;2023-05-02T08:47:34;100849.72;;;16.03;28.88
59391;BME280;53405;57.012;40.984;2023-05-02T08:50:04;100816.28;;;15.44;27.69
59391;BME280;53405;57.012;40.984;2023-05-02T08:52:33;100845.59;;;15.36;29.36
59391;BME280;53405;57.012;40.984;2023-05-02T08:55:02;100830.00;;;15.91;26.42
59391;BME280;53405;57.012;40.984;2023-05-02T08:57:35;100838.78;;;16.20;26.50
59391;BME280;53405;57.012;40.984;2023-05-02T09:00:04;100848.25;;;16.29;26.71
59391;BME280;53405;57.012;40.984;2023-05-02T09:05:39;100845.03;;;16.82;23.17
59391;BME280;53405;57.012;40.984;2023-05-02T09:08:08;100841.25;;;16.63;24.41
59391;BME280;53405;57.012;40.984;2023-05-02T09:14:18;100840.56;;;17.78;22.78
59391;BME280;53405;57.012;40.984;2023-05-02T09:16:46;100811.06;;;17.52;23.59
59391;BME280;53405;57.012;40.984;2023-05-02T09:19:23;100838.53;;;17.66;23.46
59391;BME280;53405;57.012;40.984;2023-05-02T09:21:58;100810.66;;;17.62;23.89
59391;BME280;53405;57.012;40.984;2023-05-02T09:24:26;100841.16;;;17.46;22.87
59391;BME280;53405;57.012;40.984;2023-05-02T09:27:04;100841.84;;;16.58;23.33
59391;BME280;53405;57.012;40.984;2023-05-02T09:29:32;100842.50;;;17.09;23.32
59391;BME280;53405;57.012;40.984;2023-05-02T09:32:05;100842.56;;;17.29;25.26
59391;BME280;53405;57.012;40.984;2023-05-02T09:34:33;100826.44;;;17.70;25.16
59391;BME280;53405;57.012;40.984;2023-05-02T09:37:01;100836.44;;;18.29;25.98
59391;BME280;53405;57.012;40.984;2023-05-02T09:39:31;100809.63;;;18.75;22.01
59391;BME280;53405;57.012;40.984;2023-05-02T09:41:59;100831.56;;;18.77;21.67
59391;BME280;53405;57.012;40.984;2023-05-02T09:44:36;100830.41;;;18.60;23.98
59391;BME280;53405;57.012;40.984;2023-05-02T09:47:04;100819.84;;;18.92;22.10
59391;BME280;53405;57.012;40.984;2023-05-02T09:49:43;100806.53;;;18.78;20.65
59391;BME280;53405;57.012;40.984;2023-05-02T09:52:15;100799.41;;;17.94;23.11
59391;BME280;53405;57.012;40.984;2023-05-02T09:54:43;100809.59;;;18.23;24.37
59391;BME280;53405;57.012;40.984;2023-05-02T09:57:39;100819.84;;;19.30;23.66
59391;BME280;53405;57.012;40.984;2023-05-02T10:00:12;100815.66;;;18.51;19.66
59391;BME280;53405;57.012;40.984;2023-05-02T10:02:42;100807.38;;;18.07;22.71
59391;BME280;53405;57.012;40.984;2023-05-02T10:05:10;100823.25;;;18.60;23.61
59391;BME280;53405;57.012;40.984;2023-05-02T10:07:39;100816.41;;;18.85;22.23
59391;BME280;53405;57.012;40.984;2023-05-02T10:10:13;100808.25;;;19.11;21.74
59391;BME280;53405;57.012;40.984;2023-05-02T10:12:42;100812.78;;;19.04;21.60
59391;BME280;53405;57.012;40.984;2023-05-02T10:15:12;100785.06;;;18.67;23.13
59391;BME280;53405;57.012;40.984;2023-05-02T10:17:47;100807.97;;;18.81;20.75
59391;BME280;53405;57.012;40.984;2023-05-02T10:20:22;100808.25;;;19.11;22.45
59391;BME280;53405;57.012;40.984;2023-05-02T10:22:53;100790.75;;;19.73;23.03
59391;BME280;53405;57.012;40.984;2023-05-02T10:25:22;100808.25;;;19.68;22.08
59391;BME280;53405;57.012;40.984;2023-05-02T10:27:50;100780.50;;;19.44;21.28
59391;BME280;53405;57.012;40.984;2023-05-02T10:30:18;100797.66;;;19.87;20.98
59391;BME280;53405;57.012;40.984;2023-05-02T10:32:48;100810.00;;;19.56;22.01
59391;BME280;53405;57.012;40.984;2023-05-02T10:35:18;100801.66;;;19.71;21.56
59391;BME280;53405;57.012;40.984;2023-05-02T10:37:49;100796.94;;;20.17;20.36
59391;BME280;53405;57.012;40.984;2023-05-02T10:40:17;100801.75;;;20.08;19.07
59391;BME280;53405;57.012;40.984;2023-05-02T10:42:46;100798.81;;;19.91;19.39
59391;BME280;53405;57.012;40.984;2023-05-02T10:45:34;100796.84;;;19.87;21.06
59391;BME280;53405;57.012;40.984;2023-05-02T10:53:44;100787.41;;;20.21;21.47
59391;BME280;53405;57.012;40.984;2023-05-02T10:56:19;100764.25;;;20.33;22.89
59391;BME280;53405;57.012;40.984;2023-05-02T11:04:58;100782.84;;;20.96;23.22
59391;BME280;53405;57.012;40.984;2023-05-02T11:07:36;100782.28;;;20.19;20.84
59391;BME280;53405;57.012;40.984;2023-05-02T11:12:48;100770.44;;;21.13;19.84
59391;BME280;53405;57.012;40.984;2023-05-02T11:18:06;100771.69;;;20.31;20.52
59391;BME280;53405;57.012;40.984;2023-05-02T11:20:36;100776.13;;;20.74;21.10
59391;BME280;53405;57.012;40.984;2023-05-02T11:25:44;100768.56;;;20.34;20.67
59391;BME280;53405;57.012;40.984;2023-05-02T11:28:38;100760.88;;;20.56;20.25
59391;BME280;53405;57.012;40.984;2023-05-02T11:33:59;100760.19;;;21.10;20.19
59391;BME280;53405;57.012;40.984;2023-05-02T11:36:31;100754.09;;;20.24;19.51
59391;BME280;53405;57.012;40.984;2023-05-02T11:39:03;100743.16;;;19.63;19.76
59391;BME280;53405;57.012;40.984;2023-05-02T11:41:39;100746.09;;;19.80;20.61
59391;BME280;53405;57.012;40.984;2023-05-02T11:44:14;100741.28;;;20.44;19.55
59391;BME280;53405;57.012;40.984;2023-05-02T11:46:43;100743.53;;;20.78;19.76
59391;BME280;53405;57.012;40.984;2023-05-02T11:49:11;100688.41;;;20.77;21.25
59391;BME280;53405;57.012;40.984;2023-05-02T11:51:40;100742.13;;;21.05;19.25
59391;BME280;53405;57.012;40.984;2023-05-02T11:54:18;100744.69;;;21.00;19.32
59391;BME280;53405;57.012;40.984;2023-05-02T11:56:46;100737.28;;;21.26;18.22
59391;BME280;53405;57.012;40.984;2023-05-02T11:59:15;100733.69;;;21.32;18.65
59391;BME280;53405;57.012;40.984;2023-05-02T12:01:47;100733.94;;;20.21;21.75
59391;BME280;53405;57.012;40.984;2023-05-02T12:04:15;100737.06;;;20.85;20.39
59391;BME280;53405;57.012;40.984;2023-05-02T12:06:56;100723.84;;;21.02;19.62
59391;BME280;53405;57.012;40.984;2023-05-02T12:09:24;100717.41;;;20.61;22.16
59391;BME280;53405;57.012;40.984;2023-05-02T12:11:52;100736.88;;;20.99;20.25
59391;BME280;53405;57.012;40.984;2023-05-02T12:14:28;100729.25;;;21.26;19.67
59391;BME280;53405;57.012;40.984;2023-05-02T12:16:57;100736.56;;;21.07;19.50
59391;BME280;53405;57.012;40.984;2023-05-02T12:19:26;100728.75;;;21.17;19.49
59391;BME280;53405;57.012;40.984;2023-05-02T12:21:54;100728.03;;;20.49;20.47
59391;BME280;53405;57.012;40.984;2023-05-02T12:24:22;100742.69;;;20.96;21.49
59391;BME280;53405;57.012;40.984;2023-05-02T12:27:11;100738.16;;;20.47;21.17
59391;BME280;53405;57.012;40.984;2023-05-02T12:29:46;100706.34;;;19.90;22.45
59391;BME280;53405;57.012;40.984;2023-05-02T12:32:17;100710.56;;;20.16;20.74
59391;BME280;53405;57.012;40.984;2023-05-02T12:34:54;100725.53;;;20.54;20.72
59391;BME280;53405;57.012;40.984;2023-05-02T12:37:22;100697.41;;;20.15;19.71
59391;BME280;53405;57.012;40.984;2023-05-02T12:39:51;100717.44;;;19.43;21.76
59391;BME280;53405;57.012;40.984;2023-05-02T12:42:21;100722.47;;;19.08;22.20
59391;BME280;53405;57.012;40.984;2023-05-02T12:44:51;100728.16;;;19.11;21.98
59391;BME280;53405;57.012;40.984;2023-05-02T12:47:19;100716.84;;;18.77;24.04
59391;BME280;53405;57.012;40.984;2023-05-02T12:49:56;100721.72;;;18.94;21.91
59391;BME280;53405;57.012;40.984;2023-05-02T12:55:22;100726.75;;;18.25;25.35
59391;BME280;53405;57.012;40.984;2023-05-02T12:58:02;100716.38;;;17.77;23.86
59391;BME280;53405;57.012;40.984;2023-05-02T13:00:30;100719.47;;;17.94;23.75
59391;BME280;53405;57.012;40.984;2023-05-02T13:03:23;100719.03;;;18.03;23.42
59391;BME280;53405;57.012;40.984;2023-05-02T13:05:53;100720.06;;;18.02;22.82
59391;BME280;53405;57.012;40.984;2023-05-02T13:08:21;100708.22;;;17.72;23.34
59391;BME280;53405;57.012;40.984;2023-05-02T13:10:49;100713.38;;;17.60;24.22
59391;BME280;53405;57.012;40.984;2023-05-02T13:13:18;100720.06;;;18.02;23.45
59391;BME280;53405;57.012;40.984;2023-05-02T13:15:45;100716.63;;;18.47;23.26
59391;BME280;53405;57.012;40.984;2023-05-02T13:18:13;100693.53;;;18.66;23.36
59391;BME280;53405;57.012;40.984;2023-05-02T13:20:41;100719.06;;;18.94;21.44
59391;BME280;53405;57.012;40.984;2023-05-02T13:23:08;100719.78;;;18.69;21.83
59391;BME280;53405;57.012;40.984;2023-05-02T13:25:36;100705.41;;;18.32;20.34
59391;BME280;53405;57.012;40.984;2023-05-02T13:28:04;100708.78;;;18.52;20.24
59391;BME280;53405;57.012;40.984;2023-05-02T13:30:32;100711.31;;;18.40;22.49
59391;BME280;53405;57.012;40.984;2023-05-02T13:33:00;100721.47;;;18.05;20.54
59391;BME280;53405;57.012;40.984;2023-05-02T13:35:28;100712.84;;;18.10;21.32
59391;BME280;53405;57.012;40.984;2023-05-02T13:37:56;100708.22;;;17.92;21.30
59391;BME280;53405;57.012;40.984;2023-05-02T13:40:24;100714.13;;;17.94;20.75
59391;BME280;53405;57.012;40.984;2023-05-02T13:42:51;100719.38;;;18.20;20.51
59391;BME280;53405;57.012;40.984;2023-05-02T13:45:19;100710.97;;;18.69;21.80
59391;BME280;53405;57.012;40.984;2023-05-02T13:47:47;100714.22;;;19.09;20.33
59391;BME280;53405;57.012;40.984;2023-05-02T13:50:14;100702.78;;;19.27;20.44
59391;BME280;53405;57.012;40.984;2023-05-02T13:52:42;100707.03;;;18.78;21.26